sensor_id;sensor_type;location;lat;lon;timestamp;temperature;humidity
65146;DHT22;51730;56.950;24.126;2022-12-18T00:01:16;-4.00;99.90
65146;DHT22;51730;56.950;24.126;2022-12-18T00:03:43;-4.00;99.90
65146;DHT22;51730;56.950;24.126;2022-12-18T00:06:11;-4.10;99.90
65146;DHT22;51730;56.950;24.126;2022-12-18T00:08:38;-4.10;99.90
65146;DHT22;51730;56.950;24.126;2022-12-18T00:11:06;-4.10;99.90
65146;DHT22;51730;56.950;24.126;2022-12-18T00:13:34;-4.10;99.90
65146;DHT22;51730;56.950;24.126;2022-12-18T00:16:10;-4.20;99.90
65146;DHT22;51730;56.950;24.126;2022-12-18T00:18:38;-4.10;99.90
65146;DHT22;51730;56.950;24.126;2022-12-18T00:21:08;-4.20;99.90
65146;DHT22;51730;56.950;24.126;2022-12-18T00:23:37;-4.10;99.90
65146;DHT22;51730;56.950;24.126;2022-12-18T00:26:08;-4.10;99.90
65146;DHT22;51730;56.950;24.126;2022-12-18T00:28:36;-4.20;99.90
65146;DHT22;51730;56.950;24.126;2022-12-18T00:31:05;-4.20;99.90
65146;DHT22;51730;56.950;24.126;2022-12-18T00:33:32;-4.10;99.90
65146;DHT22;51730;56.950;24.126;2022-12-18T00:36:31;-4.20;99.90
65146;DHT22;51730;56.950;24.126;2022-12-18T00:39:00;-4.20;99.90
65146;DHT22;51730;56.950;24.126;2022-12-18T00:41:28;-4.20;99.90
65146;DHT22;51730;56.950;24.126;2022-12-18T00:44:15;-4.10;99.90
65146;DHT22;51730;56.950;24.126;2022-12-18T00:46:43;-4.10;99.90
65146;DHT22;51730;56.950;24.126;2022-12-18T00:49:10;-4.20;99.90
65146;DHT22;51730;56.950;24.126;2022-12-18T00:51:39;-4.30;99.90
65146;DHT22;51730;56.950;24.126;2022-12-18T00:54:05;-4.30;99.90
65146;DHT22;51730;56.950;24.126;2022-12-18T00:56:34;-4.30;99.90
65146;DHT22;51730;56.950;24.126;2022-12-18T00:59:11;-4.20;99.90
65146;DHT22;51730;56.950;24.126;2022-12-18T01:01:38;-4.20;99.90
65146;DHT22;51730;56.950;24.126;2022-12-18T01:04:05;-4.20;99.90
65146;DHT22;51730;56.950;24.126;2022-12-18T01:06:32;-4.20;99.90
65146;DHT22;51730;56.950;24.126;2022-12-18T01:08:59;-4.30;99.90
65146;DHT22;51730;56.950;24.126;2022-12-18T01:11:26;-4.30;99.90
65146;DHT22;51730;56.950;24.126;2022-12-18T01:13:53;-4.20;99.90
65146;DHT22;51730;56.950;24.126;2022-12-18T01:16:21;-4.20;99.90
65146;DHT22;51730;56.950;24.126;2022-12-18T01:18:52;-4.30;99.90
65146;DHT22;51730;56.950;24.126;2022-12-18T01:21:21;-4.30;99.90
65146;DHT22;51730;56.950;24.126;2022-12-18T01:23:52;-4.40;99.90
65146;DHT22;51730;56.950;24.126;2022-12-18T01:26:19;-4.40;99.90
65146;DHT22;51730;56.950;24.126;2022-12-18T01:28:46;-4.50;99.90
65146;DHT22;51730;56.950;24.126;2022-12-18T01:33:43;-4.50;99.90
65146;DHT22;51730;56.950;24.126;2022-12-18T01:36:37;-4.60;99.90
65146;DHT22;51730;56.950;24.126;2022-12-18T01:39:11;-4.60;99.90
65146;DHT22;51730;56.950;24.126;2022-12-18T01:41:39;-4.70;99.90
65146;DHT22;51730;56.950;24.126;2022-12-18T01:50:57;-4.80;99.90
65146;DHT22;51730;56.950;24.126;2022-12-18T01:55:37;-4.80;99.90
65146;DHT22;51730;56.950;24.126;2022-12-18T01:58:05;-4.80;99.90
65146;DHT22;51730;56.950;24.126;2022-12-18T02:00:32;-4.90;99.90
65146;DHT22;51730;56.950;24.126;2022-12-18T02:02:58;-4.90;99.90
65146;DHT22;51730;56.950;24.126;2022-12-18T02:05:50;-4.80;99.90
65146;DHT22;51730;56.950;24.126;2022-12-18T02:13:50;-5.00;99.90
65146;DHT22;51730;56.950;24.126;2022-12-18T02:16:46;-5.00;99.90
65146;DHT22;51730;56.950;24.126;2022-12-18T02:19:21;-5.10;99.90
65146;DHT22;51730;56.950;24.126;2022-12-18T02:27:42;-5.10;99.90
65146;DHT22;51730;56.950;24.126;2022-12-18T02:30:11;-5.20;99.90
65146;DHT22;51730;56.950;24.126;2022-12-18T02:32:40;-5.20;99.90
65146;DHT22;51730;56.950;24.126;2022-12-18T02:35:15;-5.10;99.90
65146;DHT22;51730;56.950;24.126;2022-12-18T02:37:45;-5.20;99.90
65146;DHT22;51730;56.950;24.126;2022-12-18T02:40:14;-5.10;99.90
65146;DHT22;51730;56.950;24.126;2022-12-18T02:42:42;-5.10;99.90
65146;DHT22;51730;56.950;24.126;2022-12-18T02:45:09;-5.10;99.90
65146;DHT22;51730;56.950;24.126;2022-12-18T02:47:39;-5.10;99.90
65146;DHT22;51730;56.950;24.126;2022-12-18T02:50:35;-5.10;99.90
65146;DHT22;51730;56.950;24.126;2022-12-18T02:58:51;-5.00;99.90
65146;DHT22;51730;56.950;24.126;2022-12-18T03:04:04;-5.00;99.90
65146;DHT22;51730;56.950;24.126;2022-12-18T03:06:38;-5.00;99.90
65146;DHT22;51730;56.950;24.126;2022-12-18T03:09:10;-5.00;99.90
65146;DHT22;51730;56.950;24.126;2022-12-18T03:11:41;-5.00;99.90
65146;DHT22;51730;56.950;24.126;2022-12-18T03:14:30;-5.00;99.90
65146;DHT22;51730;56.950;24.126;2022-12-18T03:17:02;-5.00;99.90
65146;DHT22;51730;56.950;24.126;2022-12-18T03:19:32;-4.90;99.90
65146;DHT22;51730;56.950;24.126;2022-12-18T03:22:02;-5.00;99.90
65146;DHT22;51730;56.950;24.126;2022-12-18T03:24:31;-5.00;99.90
65146;DHT22;51730;56.950;24.126;2022-12-18T03:27:01;-4.90;99.90
65146;DHT22;51730;56.950;24.126;2022-12-18T03:29:39;-4.90;99.90
65146;DHT22;51730;56.950;24.126;2022-12-18T03:32:23;-4.90;99.90
65146;DHT22;51730;56.950;24.126;2022-12-18T03:34:52;-5.00;99.90
65146;DHT22;51730;56.950;24.126;2022-12-18T03:37:20;-5.00;99.90
65146;DHT22;51730;56.950;24.126;2022-12-18T03:39:47;-5.00;99.90
65146;DHT22;51730;56.950;24.126;2022-12-18T03:42:33;-5.10;99.90
65146;DHT22;51730;56.950;24.126;2022-12-18T03:50:34;-5.10;99.90
65146;DHT22;51730;56.950;24.126;2022-12-18T03:55:39;-5.20;99.90
65146;DHT22;51730;56.950;24.126;2022-12-18T03:58:07;-5.20;99.90
65146;DHT22;51730;56.950;24.126;2022-12-18T04:00:35;-5.20;99.90
65146;DHT22;51730;56.950;24.126;2022-12-18T04:03:04;-5.30;99.90
65146;DHT22;51730;56.950;24.126;2022-12-18T04:05:33;-5.30;99.90
65146;DHT22;51730;56.950;24.126;2022-12-18T04:08:00;-5.30;99.90
65146;DHT22;51730;56.950;24.126;2022-12-18T04:10:28;-5.30;99.90
65146;DHT22;51730;56.950;24.126;2022-12-18T04:12:58;-5.30;99.90
65146;DHT22;51730;56.950;24.126;2022-12-18T04:15:25;-5.40;99.90
65146;DHT22;51730;56.950;24.126;2022-12-18T04:17:52;-5.40;99.90
65146;DHT22;51730;56.950;24.126;2022-12-18T04:20:19;-5.40;99.90
65146;DHT22;51730;56.950;24.126;2022-12-18T04:22:46;-5.30;99.90
65146;DHT22;51730;56.950;24.126;2022-12-18T04:25:13;-5.30;99.90
65146;DHT22;51730;56.950;24.126;2022-12-18T04:27:40;-5.30;99.90
65146;DHT22;51730;56.950;24.126;2022-12-18T04:30:08;-5.40;99.90
65146;DHT22;51730;56.950;24.126;2022-12-18T04:32:35;-5.50;99.90
65146;DHT22;51730;56.950;24.126;2022-12-18T04:35:03;-5.40;99.90
65146;DHT22;51730;56.950;24.126;2022-12-18T04:37:31;-5.40;99.90
65146;DHT22;51730;56.950;24.126;2022-12-18T04:39:58;-5.40;99.90
65146;DHT22;51730;56.950;24.126;2022-12-18T04:42:24;-5.40;99.90
65146;DHT22;51730;56.950;24.126;2022-12-18T04:44:51;-5.40;99.90
65146;DHT22;51730;56.950;24.126;2022-12-18T04:47:18;-5.50;99.90
65146;DHT22;51730;56.950;24.126;2022-12-18T04:49:45;-5.60;99.90
65146;DHT22;51730;56.950;24.126;2022-12-18T04:52:12;-5.60;99.90
65146;DHT22;51730;56.950;24.126;2022-12-18T04:54:39;-5.60;99.90
65146;DHT22;51730;56.950;24.126;2022-12-18T04:57:06;-5.50;99.90
65146;DHT22;51730;56.950;24.126;2022-12-18T04:59:33;-5.50;99.90
65146;DHT22;51730;56.950;24.126;2022-12-18T05:02:00;-5.60;99.90
65146;DHT22;51730;56.950;24.126;2022-12-18T05:04:27;-5.60;99.90
65146;DHT22;51730;56.950;24.126;2022-12-18T05:06:54;-5.70;99.90
65146;DHT22;51730;56.950;24.126;2022-12-18T05:09:22;-5.60;99.90
65146;DHT22;51730;56.950;24.126;2022-12-18T05:11:49;-5.70;99.90
65146;DHT22;51730;56.950;24.126;2022-12-18T05:14:16;-5.60;99.90
65146;DHT22;51730;56.950;24.126;2022-12-18T05:16:43;-5.70;99.90
65146;DHT22;51730;56.950;24.126;2022-12-18T05:19:11;-5.70;99.90
65146;DHT22;51730;56.950;24.126;2022-12-18T05:21:38;-5.70;99.90
65146;DHT22;51730;56.950;24.126;2022-12-18T05:24:05;-5.70;99.90
65146;DHT22;51730;56.950;24.126;2022-12-18T05:26:33;-5.70;99.90
65146;DHT22;51730;56.950;24.126;2022-12-18T05:29:01;-5.70;99.90
65146;DHT22;51730;56.950;24.126;2022-12-18T05:31:28;-5.70;99.90
65146;DHT22;51730;56.950;24.126;2022-12-18T05:34:03;-5.80;99.90
65146;DHT22;51730;56.950;24.126;2022-12-18T05:36:29;-5.70;99.90
65146;DHT22;51730;56.950;24.126;2022-12-18T05:38:56;-5.80;99.90
65146;DHT22;51730;56.950;24.126;2022-12-18T05:41:23;-5.70;99.90
65146;DHT22;51730;56.950;24.126;2022-12-18T05:43:50;-5.80;99.90
65146;DHT22;51730;56.950;24.126;2022-12-18T05:46:17;-5.80;99.90
65146;DHT22;51730;56.950;24.126;2022-12-18T05:48:44;-5.80;99.90
65146;DHT22;51730;56.950;24.126;2022-12-18T05:51:15;-5.80;99.90
65146;DHT22;51730;56.950;24.126;2022-12-18T05:53:43;-5.80;99.90
65146;DHT22;51730;56.950;24.126;2022-12-18T05:56:18;-5.80;99.90
65146;DHT22;51730;56.950;24.126;2022-12-18T05:58:46;-5.80;99.90
65146;DHT22;51730;56.950;24.126;2022-12-18T06:01:21;-5.80;99.90
65146;DHT22;51730;56.950;24.126;2022-12-18T06:03:49;-5.90;99.90
65146;DHT22;51730;56.950;24.126;2022-12-18T06:06:22;-5.90;99.90
65146;DHT22;51730;56.950;24.126;2022-12-18T06:08:50;-5.90;99.90
65146;DHT22;51730;56.950;24.126;2022-12-18T06:11:19;-5.90;99.90
65146;DHT22;51730;56.950;24.126;2022-12-18T06:13:49;-6.00;99.90
65146;DHT22;51730;56.950;24.126;2022-12-18T06:16:23;-6.10;99.90
65146;DHT22;51730;56.950;24.126;2022-12-18T06:18:50;-6.10;99.90
65146;DHT22;51730;56.950;24.126;2022-12-18T06:21:17;-6.20;99.90
65146;DHT22;51730;56.950;24.126;2022-12-18T06:23:44;-6.20;99.90
65146;DHT22;51730;56.950;24.126;2022-12-18T06:26:12;-6.20;99.90
65146;DHT22;51730;56.950;24.126;2022-12-18T06:28:39;-6.30;99.90
65146;DHT22;51730;56.950;24.126;2022-12-18T06:31:08;-6.30;99.90
65146;DHT22;51730;56.950;24.126;2022-12-18T06:33:35;-6.30;99.90
65146;DHT22;51730;56.950;24.126;2022-12-18T06:36:09;-6.30;99.90
65146;DHT22;51730;56.950;24.126;2022-12-18T06:38:40;-6.30;99.90
65146;DHT22;51730;56.950;24.126;2022-12-18T06:41:09;-6.30;99.90
65146;DHT22;51730;56.950;24.126;2022-12-18T06:43:37;-6.30;99.90
65146;DHT22;51730;56.950;24.126;2022-12-18T06:46:05;-6.30;99.90
65146;DHT22;51730;56.950;24.126;2022-12-18T06:48:32;-6.40;99.90
65146;DHT22;51730;56.950;24.126;2022-12-18T06:51:00;-6.30;99.90
65146;DHT22;51730;56.950;24.126;2022-12-18T06:53:27;-6.30;99.90
65146;DHT22;51730;56.950;24.126;2022-12-18T06:56:05;-6.40;99.90
65146;DHT22;51730;56.950;24.126;2022-12-18T06:58:36;-6.40;99.90
65146;DHT22;51730;56.950;24.126;2022-12-18T07:01:05;-6.30;99.90
65146;DHT22;51730;56.950;24.126;2022-12-18T07:03:33;-6.40;99.90
65146;DHT22;51730;56.950;24.126;2022-12-18T07:05:59;-6.30;99.90
65146;DHT22;51730;56.950;24.126;2022-12-18T07:08:26;-6.30;99.90
65146;DHT22;51730;56.950;24.126;2022-12-18T07:10:54;-6.50;99.90
65146;DHT22;51730;56.950;24.126;2022-12-18T07:13:22;-6.40;99.90
65146;DHT22;51730;56.950;24.126;2022-12-18T07:15:49;-6.40;99.90
65146;DHT22;51730;56.950;24.126;2022-12-18T07:18:16;-6.40;99.90
65146;DHT22;51730;56.950;24.126;2022-12-18T07:20:43;-6.40;99.90
65146;DHT22;51730;56.950;24.126;2022-12-18T07:23:11;-6.40;99.90
65146;DHT22;51730;56.950;24.126;2022-12-18T07:25:38;-6.40;99.90
65146;DHT22;51730;56.950;24.126;2022-12-18T07:28:06;-6.50;99.90
65146;DHT22;51730;56.950;24.126;2022-12-18T07:30:37;-6.50;99.90
65146;DHT22;51730;56.950;24.126;2022-12-18T07:33:05;-6.50;99.90
65146;DHT22;51730;56.950;24.126;2022-12-18T07:35:33;-6.40;99.90
65146;DHT22;51730;56.950;24.126;2022-12-18T07:38:00;-6.50;99.90
65146;DHT22;51730;56.950;24.126;2022-12-18T07:40:29;-6.50;99.90
65146;DHT22;51730;56.950;24.126;2022-12-18T07:42:56;-6.60;99.90
65146;DHT22;51730;56.950;24.126;2022-12-18T07:45:23;-6.40;99.90
65146;DHT22;51730;56.950;24.126;2022-12-18T07:47:50;-6.40;99.90
65146;DHT22;51730;56.950;24.126;2022-12-18T07:50:17;-6.40;99.90
65146;DHT22;51730;56.950;24.126;2022-12-18T07:52:44;-6.50;99.90
65146;DHT22;51730;56.950;24.126;2022-12-18T07:55:11;-6.40;99.90
65146;DHT22;51730;56.950;24.126;2022-12-18T07:57:38;-6.40;99.90
65146;DHT22;51730;56.950;24.126;2022-12-18T08:00:19;-6.30;99.90
65146;DHT22;51730;56.950;24.126;2022-12-18T08:02:47;-6.30;99.90
65146;DHT22;51730;56.950;24.126;2022-12-18T08:05:14;-6.30;99.90
65146;DHT22;51730;56.950;24.126;2022-12-18T08:07:41;-6.20;99.90
65146;DHT22;51730;56.950;24.126;2022-12-18T08:10:08;-6.20;99.90
65146;DHT22;51730;56.950;24.126;2022-12-18T08:12:35;-6.20;99.90
65146;DHT22;51730;56.950;24.126;2022-12-18T08:15:02;-6.20;99.90
65146;DHT22;51730;56.950;24.126;2022-12-18T08:17:30;-6.20;99.90
65146;DHT22;51730;56.950;24.126;2022-12-18T08:19:57;-6.20;99.90
65146;DHT22;51730;56.950;24.126;2022-12-18T08:22:24;-6.10;99.90
65146;DHT22;51730;56.950;24.126;2022-12-18T08:24:51;-6.10;99.90
65146;DHT22;51730;56.950;24.126;2022-12-18T08:27:17;-6.00;99.90
65146;DHT22;51730;56.950;24.126;2022-12-18T08:30:00;-6.20;99.90
65146;DHT22;51730;56.950;24.126;2022-12-18T08:32:27;-6.00;99.90
65146;DHT22;51730;56.950;24.126;2022-12-18T08:34:54;-6.00;99.90
65146;DHT22;51730;56.950;24.126;2022-12-18T08:37:21;-5.90;99.90
65146;DHT22;51730;56.950;24.126;2022-12-18T08:39:48;-5.90;99.90
65146;DHT22;51730;56.950;24.126;2022-12-18T08:42:15;-5.90;99.90
65146;DHT22;51730;56.950;24.126;2022-12-18T08:45:01;-5.90;99.90
65146;DHT22;51730;56.950;24.126;2022-12-18T08:47:28;-5.80;99.90
65146;DHT22;51730;56.950;24.126;2022-12-18T08:49:55;-5.70;99.90
65146;DHT22;51730;56.950;24.126;2022-12-18T08:52:22;-5.70;99.90
65146;DHT22;51730;56.950;24.126;2022-12-18T08:54:49;-5.70;99.90
65146;DHT22;51730;56.950;24.126;2022-12-18T08:57:16;-5.70;99.90
65146;DHT22;51730;56.950;24.126;2022-12-18T08:59:43;-5.70;99.90
65146;DHT22;51730;56.950;24.126;2022-12-18T09:02:11;-5.50;99.90
65146;DHT22;51730;56.950;24.126;2022-12-18T09:04:39;-5.50;99.90
65146;DHT22;51730;56.950;24.126;2022-12-18T09:07:07;-5.50;99.90
65146;DHT22;51730;56.950;24.126;2022-12-18T09:09:35;-5.50;99.90
65146;DHT22;51730;56.950;24.126;2022-12-18T09:12:02;-5.50;99.90
65146;DHT22;51730;56.950;24.126;2022-12-18T09:14:29;-5.40;99.90
65146;DHT22;51730;56.950;24.126;2022-12-18T09:16:56;-5.40;99.90
65146;DHT22;51730;56.950;24.126;2022-12-18T09:19:23;-5.40;99.90
65146;DHT22;51730;56.950;24.126;2022-12-18T09:21:50;-5.30;99.90
65146;DHT22;51730;56.950;24.126;2022-12-18T09:24:17;-5.30;99.90
65146;DHT22;51730;56.950;24.126;2022-12-18T09:26:44;-5.30;99.90
65146;DHT22;51730;56.950;24.126;2022-12-18T09:29:14;-5.20;99.90
65146;DHT22;51730;56.950;24.126;2022-12-18T09:31:42;-5.20;99.90
65146;DHT22;51730;56.950;24.126;2022-12-18T09:34:09;-5.20;99.90
65146;DHT22;51730;56.950;24.126;2022-12-18T09:36:36;-5.10;99.90
65146;DHT22;51730;56.950;24.126;2022-12-18T09:39:03;-5.10;99.90
65146;DHT22;51730;56.950;24.126;2022-12-18T09:41:47;-5.00;99.90
65146;DHT22;51730;56.950;24.126;2022-12-18T09:47:17;-5.10;99.90
65146;DHT22;51730;56.950;24.126;2022-12-18T09:49:49;-5.00;99.90
65146;DHT22;51730;56.950;24.126;2022-12-18T09:54:55;-4.90;99.90
65146;DHT22;51730;56.950;24.126;2022-12-18T09:57:24;-4.80;99.90
65146;DHT22;51730;56.950;24.126;2022-12-18T10:00:40;-4.80;99.90
65146;DHT22;51730;56.950;24.126;2022-12-18T10:02:49;-4.70;99.90
65146;DHT22;51730;56.950;24.126;2022-12-18T10:08:45;-4.70;99.90
65146;DHT22;51730;56.950;24.126;2022-12-18T10:14:09;-4.60;99.90
65146;DHT22;51730;56.950;24.126;2022-12-18T10:19:43;-4.50;99.90
65146;DHT22;51730;56.950;24.126;2022-12-18T10:27:45;-4.50;99.90
65146;DHT22;51730;56.950;24.126;2022-12-18T10:30:15;-4.40;99.90
65146;DHT22;51730;56.950;24.126;2022-12-18T10:32:42;-4.40;99.90
65146;DHT22;51730;56.950;24.126;2022-12-18T10:40:56;-4.20;99.90
65146;DHT22;51730;56.950;24.126;2022-12-18T10:43:29;-4.30;99.90
65146;DHT22;51730;56.950;24.126;2022-12-18T10:46:04;-4.20;99.90
65146;DHT22;51730;56.950;24.126;2022-12-18T10:54:00;-4.20;99.90
65146;DHT22;51730;56.950;24.126;2022-12-18T10:56:30;-4.10;99.90
65146;DHT22;51730;56.950;24.126;2022-12-18T10:59:03;-4.00;99.90
65146;DHT22;51730;56.950;24.126;2022-12-18T11:04:32;-4.00;99.90
65146;DHT22;51730;56.950;24.126;2022-12-18T11:09:38;-4.00;99.90
65146;DHT22;51730;56.950;24.126;2022-12-18T11:12:17;-3.90;99.90
65146;DHT22;51730;56.950;24.126;2022-12-18T11:14:48;-3.90;99.90
65146;DHT22;51730;56.950;24.126;2022-12-18T11:17:21;-3.90;99.90
65146;DHT22;51730;56.950;24.126;2022-12-18T11:19:59;-3.90;99.90
65146;DHT22;51730;56.950;24.126;2022-12-18T11:22:32;-3.90;99.90
65146;DHT22;51730;56.950;24.126;2022-12-18T11:25:07;-3.90;99.90
65146;DHT22;51730;56.950;24.126;2022-12-18T11:28:03;-3.90;99.90
65146;DHT22;51730;56.950;24.126;2022-12-18T11:30:32;-3.80;99.90
65146;DHT22;51730;56.950;24.126;2022-12-18T11:33:20;-3.80;99.90
65146;DHT22;51730;56.950;24.126;2022-12-18T11:35:57;-3.80;99.90
65146;DHT22;51730;56.950;24.126;2022-12-18T11:38:35;-3.80;99.90
65146;DHT22;51730;56.950;24.126;2022-12-18T11:43:41;-3.70;99.90
65146;DHT22;51730;56.950;24.126;2022-12-18T11:46:14;-3.70;99.90
65146;DHT22;51730;56.950;24.126;2022-12-18T11:51:23;-3.70;99.90
65146;DHT22;51730;56.950;24.126;2022-12-18T11:53:53;-3.70;99.90
65146;DHT22;51730;56.950;24.126;2022-12-18T11:56:35;-3.60;99.90
65146;DHT22;51730;56.950;24.126;2022-12-18T11:59:11;-3.60;99.90
65146;DHT22;51730;56.950;24.126;2022-12-18T12:02:09;-3.50;99.90
65146;DHT22;51730;56.950;24.126;2022-12-18T12:26:07;-3.40;99.90
65146;DHT22;51730;56.950;24.126;2022-12-18T12:29:59;-3.40;99.90
65146;DHT22;51730;56.950;24.126;2022-12-18T12:34:53;-3.30;99.90
65146;DHT22;51730;56.950;24.126;2022-12-18T12:40:24;-3.30;99.90
65146;DHT22;51730;56.950;24.126;2022-12-18T12:46:03;-3.40;99.90
65146;DHT22;51730;56.950;24.126;2022-12-18T12:48:51;-3.30;99.90
65146;DHT22;51730;56.950;24.126;2022-12-18T12:51:33;-3.30;99.90
65146;DHT22;51730;56.950;24.126;2022-12-18T12:54:01;-3.40;99.90
65146;DHT22;51730;56.950;24.126;2022-12-18T12:56:46;-3.30;99.90
65146;DHT22;51730;56.950;24.126;2022-12-18T13:05:23;-3.20;99.90
65146;DHT22;51730;56.950;24.126;2022-12-18T13:13:12;-3.10;99.90
65146;DHT22;51730;56.950;24.126;2022-12-18T13:16:06;-3.00;99.90
65146;DHT22;51730;56.950;24.126;2022-12-18T13:18:34;-3.00;99.90
65146;DHT22;51730;56.950;24.126;2022-12-18T13:21:07;-3.00;99.90
65146;DHT22;51730;56.950;24.126;2022-12-18T13:23:38;-3.00;99.90
65146;DHT22;51730;56.950;24.126;2022-12-18T13:34:26;-3.00;99.90
65146;DHT22;51730;56.950;24.126;2022-12-18T13:37:33;-3.00;99.90
65146;DHT22;51730;56.950;24.126;2022-12-18T13:39:43;-3.00;99.90
65146;DHT22;51730;56.950;24.126;2022-12-18T13:44:58;-3.00;99.90
65146;DHT22;51730;56.950;24.126;2022-12-18T13:49:56;-3.00;99.90
65146;DHT22;51730;56.950;24.126;2022-12-18T13:52:36;-3.00;99.90
65146;DHT22;51730;56.950;24.126;2022-12-18T13:55:07;-3.00;99.90
65146;DHT22;51730;56.950;24.126;2022-12-18T13:57:41;-3.00;99.90
65146;DHT22;51730;56.950;24.126;2022-12-18T14:00:26;-3.00;99.90
65146;DHT22;51730;56.950;24.126;2022-12-18T14:02:56;-3.00;99.90
65146;DHT22;51730;56.950;24.126;2022-12-18T14:05:44;-3.00;99.90
65146;DHT22;51730;56.950;24.126;2022-12-18T14:08:16;-3.10;99.90
65146;DHT22;51730;56.950;24.126;2022-12-18T14:10:46;-3.10;99.90
65146;DHT22;51730;56.950;24.126;2022-12-18T14:13:29;-3.10;99.90
65146;DHT22;51730;56.950;24.126;2022-12-18T14:15:57;-3.00;99.90
65146;DHT22;51730;56.950;24.126;2022-12-18T14:18:41;-3.10;99.90
65146;DHT22;51730;56.950;24.126;2022-12-18T14:21:27;-3.10;99.90
65146;DHT22;51730;56.950;24.126;2022-12-18T14:24:05;-3.10;99.90
65146;DHT22;51730;56.950;24.126;2022-12-18T14:26:32;-3.10;99.90
65146;DHT22;51730;56.950;24.126;2022-12-18T14:29:17;-3.00;99.90
65146;DHT22;51730;56.950;24.126;2022-12-18T14:31:45;-3.10;99.90
65146;DHT22;51730;56.950;24.126;2022-12-18T14:34:16;-3.00;99.90
65146;DHT22;51730;56.950;24.126;2022-12-18T14:36:52;-3.00;99.90
65146;DHT22;51730;56.950;24.126;2022-12-18T14:39:20;-2.90;99.90
65146;DHT22;51730;56.950;24.126;2022-12-18T14:41:51;-3.00;99.90
65146;DHT22;51730;56.950;24.126;2022-12-18T14:44:19;-3.00;99.90
65146;DHT22;51730;56.950;24.126;2022-12-18T14:46:49;-3.00;99.90
65146;DHT22;51730;56.950;24.126;2022-12-18T14:51:55;-3.00;99.90
65146;DHT22;51730;56.950;24.126;2022-12-18T14:54:24;-3.00;99.90
65146;DHT22;51730;56.950;24.126;2022-12-18T14:57:06;-3.00;99.90
65146;DHT22;51730;56.950;24.126;2022-12-18T14:59:39;-3.10;99.90
65146;DHT22;51730;56.950;24.126;2022-12-18T15:04:45;-3.00;99.90
65146;DHT22;51730;56.950;24.126;2022-12-18T15:07:20;-3.00;99.90
65146;DHT22;51730;56.950;24.126;2022-12-18T15:20:56;-2.90;99.90
65146;DHT22;51730;56.950;24.126;2022-12-18T15:23:36;-2.90;99.90
65146;DHT22;51730;56.950;24.126;2022-12-18T15:26:05;-2.90;99.90
65146;DHT22;51730;56.950;24.126;2022-12-18T15:28:44;-2.90;99.90
65146;DHT22;51730;56.950;24.126;2022-12-18T15:33:42;-2.90;99.90
65146;DHT22;51730;56.950;24.126;2022-12-18T15:36:16;-2.80;99.90
65146;DHT22;51730;56.950;24.126;2022-12-18T15:38:53;-2.80;99.90
65146;DHT22;51730;56.950;24.126;2022-12-18T15:41:32;-2.80;99.90
65146;DHT22;51730;56.950;24.126;2022-12-18T15:44:02;-2.70;99.90
65146;DHT22;51730;56.950;24.126;2022-12-18T15:46:30;-2.70;99.90
65146;DHT22;51730;56.950;24.126;2022-12-18T15:48:58;-2.70;99.90
65146;DHT22;51730;56.950;24.126;2022-12-18T15:51:33;-2.60;99.90
65146;DHT22;51730;56.950;24.126;2022-12-18T15:54:02;-2.60;99.90
65146;DHT22;51730;56.950;24.126;2022-12-18T15:56:30;-2.60;99.90
65146;DHT22;51730;56.950;24.126;2022-12-18T15:59:18;-2.50;99.90
65146;DHT22;51730;56.950;24.126;2022-12-18T16:01:48;-2.50;99.90
65146;DHT22;51730;56.950;24.126;2022-12-18T16:04:17;-2.50;99.90
65146;DHT22;51730;56.950;24.126;2022-12-18T16:06:47;-2.40;99.90
65146;DHT22;51730;56.950;24.126;2022-12-18T16:09:35;-2.40;99.90
65146;DHT22;51730;56.950;24.126;2022-12-18T16:12:02;-2.40;99.90
65146;DHT22;51730;56.950;24.126;2022-12-18T16:14:30;-2.30;99.90
65146;DHT22;51730;56.950;24.126;2022-12-18T16:16:57;-2.30;99.90
65146;DHT22;51730;56.950;24.126;2022-12-18T16:19:26;-2.20;99.90
65146;DHT22;51730;56.950;24.126;2022-12-18T16:21:55;-2.20;99.90
65146;DHT22;51730;56.950;24.126;2022-12-18T16:24:24;-2.20;99.90
65146;DHT22;51730;56.950;24.126;2022-12-18T16:26:52;-2.20;99.90
65146;DHT22;51730;56.950;24.126;2022-12-18T16:29:20;-2.10;99.90
65146;DHT22;51730;56.950;24.126;2022-12-18T16:31:51;-2.10;99.90
65146;DHT22;51730;56.950;24.126;2022-12-18T16:36:56;-2.10;99.90
65146;DHT22;51730;56.950;24.126;2022-12-18T16:39:31;-2.10;99.90
65146;DHT22;51730;56.950;24.126;2022-12-18T16:42:00;-2.00;99.90
65146;DHT22;51730;56.950;24.126;2022-12-18T16:44:32;-2.00;99.90
65146;DHT22;51730;56.950;24.126;2022-12-18T16:46:59;-2.00;99.90
65146;DHT22;51730;56.950;24.126;2022-12-18T16:49:29;-2.00;99.90
65146;DHT22;51730;56.950;24.126;2022-12-18T16:51:56;-2.00;99.90
65146;DHT22;51730;56.950;24.126;2022-12-18T16:54:23;-2.00;99.90
65146;DHT22;51730;56.950;24.126;2022-12-18T16:56:54;-2.10;99.90
65146;DHT22;51730;56.950;24.126;2022-12-18T16:59:21;-2.00;99.90
65146;DHT22;51730;56.950;24.126;2022-12-18T17:01:48;-2.00;99.90
65146;DHT22;51730;56.950;24.126;2022-12-18T17:04:16;-2.00;99.90
65146;DHT22;51730;56.950;24.126;2022-12-18T17:06:44;-1.90;99.90
65146;DHT22;51730;56.950;24.126;2022-12-18T17:09:13;-1.90;99.90
65146;DHT22;51730;56.950;24.126;2022-12-18T17:11:41;-1.90;99.90
65146;DHT22;51730;56.950;24.126;2022-12-18T17:14:12;-1.90;99.90
65146;DHT22;51730;56.950;24.126;2022-12-18T17:16:40;-1.90;99.90
65146;DHT22;51730;56.950;24.126;2022-12-18T17:19:07;-1.90;99.90
65146;DHT22;51730;56.950;24.126;2022-12-18T17:21:43;-1.80;99.90
65146;DHT22;51730;56.950;24.126;2022-12-18T17:24:10;-1.80;99.90
65146;DHT22;51730;56.950;24.126;2022-12-18T17:26:38;-1.80;99.90
65146;DHT22;51730;56.950;24.126;2022-12-18T17:29:05;-1.80;99.90
65146;DHT22;51730;56.950;24.126;2022-12-18T17:31:32;-1.70;99.90
65146;DHT22;51730;56.950;24.126;2022-12-18T17:34:03;-1.70;99.90
65146;DHT22;51730;56.950;24.126;2022-12-18T17:36:30;-1.70;99.90
65146;DHT22;51730;56.950;24.126;2022-12-18T17:39:01;-1.80;99.90
65146;DHT22;51730;56.950;24.126;2022-12-18T17:41:29;-1.70;99.90
65146;DHT22;51730;56.950;24.126;2022-12-18T17:43:58;-1.70;99.90
65146;DHT22;51730;56.950;24.126;2022-12-18T17:46:26;-1.70;99.90
65146;DHT22;51730;56.950;24.126;2022-12-18T17:48:55;-1.70;99.90
65146;DHT22;51730;56.950;24.126;2022-12-18T17:51:22;-1.80;99.90
65146;DHT22;51730;56.950;24.126;2022-12-18T17:53:49;-1.70;99.90
65146;DHT22;51730;56.950;24.126;2022-12-18T17:56:18;-1.70;99.90
65146;DHT22;51730;56.950;24.126;2022-12-18T17:58:46;-1.60;99.90
65146;DHT22;51730;56.950;24.126;2022-12-18T18:01:16;-1.70;99.90
65146;DHT22;51730;56.950;24.126;2022-12-18T18:03:44;-1.70;99.90
65146;DHT22;51730;56.950;24.126;2022-12-18T18:06:15;-1.60;99.90
65146;DHT22;51730;56.950;24.126;2022-12-18T18:08:42;-1.60;99.90
65146;DHT22;51730;56.950;24.126;2022-12-18T18:11:12;-1.50;99.90
65146;DHT22;51730;56.950;24.126;2022-12-18T18:13:58;-1.50;99.90
65146;DHT22;51730;56.950;24.126;2022-12-18T18:16:37;-1.50;99.90